createdAt,value
2022-10-05T00:01:02.578Z,8.18
2022-10-05T00:03:37.060Z,8.00
2022-10-05T00:06:06.019Z,7.78
2022-10-05T00:08:35.948Z,7.60
2022-10-05T00:11:04.174Z,7.10
2022-10-05T00:13:32.804Z,6.78
2022-10-05T00:16:13.871Z,6.40
2022-10-05T00:18:47.695Z,7.03
2022-10-05T00:21:23.434Z,6.85
2022-10-05T00:23:52.816Z,6.47
2022-10-05T00:26:23.633Z,6.03
2022-10-05T00:28:52.961Z,6.18
2022-10-05T00:31:23.729Z,6.18
2022-10-05T00:33:54.957Z,6.70
2022-10-05T00:36:23.351Z,7.55
2022-10-05T00:38:51.671Z,6.35
2022-10-05T00:41:38.852Z,6.30
2022-10-05T00:44:29.451Z,5.93
2022-10-05T00:47:08.079Z,6.28
2022-10-05T00:50:07.087Z,6.28
2022-10-05T00:52:49.999Z,5.72
2022-10-05T00:55:31.407Z,5.63
2022-10-05T00:58:13.708Z,5.63
2022-10-05T01:01:01.820Z,5.43
2022-10-05T01:03:43.875Z,5.70
2022-10-05T01:06:24.269Z,5.68
2022-10-05T01:09:04.140Z,6.50
2022-10-05T01:11:44.476Z,5.75
2022-10-05T01:14:23.435Z,5.78
2022-10-05T01:16:59.223Z,5.82
2022-10-05T01:19:52.936Z,5.35
2022-10-05T01:22:46.087Z,6.00
2022-10-05T01:25:27.418Z,5.72
2022-10-05T01:28:15.263Z,6.13
2022-10-05T01:31:08.800Z,5.90
2022-10-05T01:33:53.630Z,6.45
2022-10-05T01:36:29.865Z,5.72
2022-10-05T01:39:08.405Z,5.15
2022-10-05T01:41:58.466Z,5.38
2022-10-05T01:44:32.740Z,5.38
2022-10-05T01:47:08.406Z,6.47
2022-10-05T01:49:39.779Z,5.88
2022-10-05T01:52:24.416Z,6.05
2022-10-05T01:55:17.069Z,8.23
2022-10-05T01:58:04.564Z,6.35
2022-10-05T02:00:44.236Z,7.35
2022-10-05T02:03:20.108Z,7.18
2022-10-05T02:05:53.989Z,7.18
2022-10-05T02:08:28.860Z,8.40
2022-10-05T02:11:03.336Z,7.22
2022-10-05T02:13:41.276Z,7.20
2022-10-05T02:16:17.669Z,6.55
2022-10-05T02:18:52.851Z,7.18
2022-10-05T02:21:37.181Z,7.72
2022-10-05T02:24:20.146Z,7.53
2022-10-05T02:26:49.861Z,7.45
2022-10-05T02:29:34.783Z,7.72
2022-10-05T02:32:09.108Z,7.35
2022-10-05T02:34:40.605Z,7.53
2022-10-05T02:37:23.581Z,8.02
2022-10-05T02:40:15.855Z,7.78
2022-10-05T02:42:58.508Z,6.82
2022-10-05T02:45:39.532Z,7.50
2022-10-05T02:48:16.729Z,7.20
2022-10-05T02:50:54.895Z,8.30
2022-10-05T02:53:30.458Z,7.65
2022-10-05T02:56:14.625Z,8.23
2022-10-05T02:58:54.523Z,8.98
2022-10-05T03:01:32.446Z,7.63
2022-10-05T03:04:14.970Z,8.18
2022-10-05T03:06:55.811Z,8.13
2022-10-05T03:09:32.994Z,8.10
2022-10-05T03:12:13.990Z,8.30
2022-10-05T03:14:52.797Z,8.35
2022-10-05T03:17:32.296Z,8.10
2022-10-05T03:20:21.547Z,8.15
2022-10-05T03:22:52.486Z,8.02
2022-10-05T03:26:03.973Z,7.25
2022-10-05T03:28:43.690Z,7.18
2022-10-05T03:31:20.835Z,6.90
2022-10-05T03:34:01.684Z,7.85
2022-10-05T03:36:39.752Z,6.38
2022-10-05T03:39:16.152Z,7.03
2022-10-05T03:41:49.068Z,6.75
2022-10-05T03:44:36.487Z,6.57
2022-10-05T03:47:16.103Z,7.15
2022-10-05T03:50:00.061Z,8.23
2022-10-05T03:52:38.246Z,7.13
2022-10-05T03:55:19.800Z,6.40
2022-10-05T03:57:51.205Z,6.50
2022-10-05T04:00:30.496Z,6.28
2022-10-05T04:03:06.240Z,6.47
2022-10-05T04:05:43.255Z,6.43
2022-10-05T04:08:22.003Z,6.18
2022-10-05T04:10:53.128Z,5.97
2022-10-05T04:13:27.476Z,7.15
2022-10-05T04:16:02.060Z,7.03
2022-10-05T04:18:35.987Z,7.78
2022-10-05T04:21:11.762Z,7.43
2022-10-05T04:23:56.766Z,7.10
2022-10-05T04:26:33.338Z,7.05
2022-10-05T04:29:12.071Z,8.40
2022-10-05T04:32:03.587Z,7.20
2022-10-05T04:35:02.720Z,7.78
2022-10-05T04:37:46.731Z,8.13
2022-10-05T04:40:36.621Z,7.60
2022-10-05T04:43:13.518Z,6.95
2022-10-05T04:46:06.588Z,6.80
2022-10-05T04:49:05.021Z,7.13
2022-10-05T04:51:46.578Z,8.30
2022-10-05T04:54:27.588Z,6.68
2022-10-05T04:57:01.611Z,6.60
2022-10-05T05:00:03.114Z,6.82
2022-10-05T05:02:49.293Z,7.65
2022-10-05T05:05:28.988Z,7.95
2022-10-05T05:08:10.019Z,7.10
2022-10-05T05:11:22.323Z,7.25
2022-10-05T05:14:14.248Z,6.90
2022-10-05T05:16:46.413Z,7.25
2022-10-05T05:19:34.793Z,7.38
2022-10-05T05:22:18.340Z,7.50
2022-10-05T05:25:04.355Z,7.93
2022-10-05T05:27:42.442Z,7.45
2022-10-05T05:30:22.255Z,7.07
2022-10-05T05:33:09.276Z,7.10
2022-10-05T05:36:19.513Z,7.75
2022-10-05T05:39:03.869Z,7.10
2022-10-05T05:41:39.108Z,8.00
2022-10-05T05:44:20.824Z,7.80
2022-10-05T05:47:03.950Z,8.25
2022-10-05T05:49:56.066Z,7.90
2022-10-05T05:52:31.508Z,8.93
2022-10-05T05:55:06.451Z,7.85
2022-10-05T05:57:44.013Z,8.20
2022-10-05T06:00:22.675Z,7.80
2022-10-05T06:02:59.652Z,8.30
2022-10-05T06:05:33.515Z,8.23
2022-10-05T06:08:11.996Z,8.38
2022-10-05T06:10:44.756Z,7.88
2022-10-05T06:13:20.436Z,8.77
2022-10-05T06:15:54.290Z,8.07
2022-10-05T06:18:24.778Z,8.02
2022-10-05T06:21:01.112Z,7.80
2022-10-05T06:23:36.912Z,7.78
2022-10-05T06:26:39.561Z,7.45
2022-10-05T06:29:22.068Z,7.10
2022-10-05T06:32:06.241Z,7.82
2022-10-05T06:34:58.205Z,7.57
2022-10-05T06:37:45.626Z,8.80
2022-10-05T06:40:31.992Z,7.85
2022-10-05T06:43:36.196Z,6.95
2022-10-05T06:46:11.615Z,6.93
2022-10-05T06:48:58.513Z,7.10
2022-10-05T06:51:37.412Z,7.18
2022-10-05T06:54:21.309Z,7.65
2022-10-05T06:56:57.535Z,7.95
2022-10-05T06:59:34.326Z,7.80
2022-10-05T07:02:10.153Z,7.50
2022-10-05T07:05:25.772Z,7.57
2022-10-05T07:07:59.691Z,6.20
2022-10-05T07:10:36.597Z,6.53
2022-10-05T07:13:27.866Z,6.43
2022-10-05T07:16:00.926Z,6.88
2022-10-05T07:18:50.865Z,6.32
2022-10-05T07:21:34.504Z,6.10
2022-10-05T07:24:22.604Z,6.07
2022-10-05T07:26:57.719Z,6.20
2022-10-05T07:29:33.722Z,5.95
2022-10-05T07:32:15.572Z,6.53
2022-10-05T07:34:58.666Z,6.07
2022-10-05T07:37:51.893Z,5.65
2022-10-05T07:40:29.587Z,5.18
2022-10-05T07:43:12.714Z,5.70
2022-10-05T07:45:49.006Z,6.20
2022-10-05T07:48:21.996Z,5.53
2022-10-05T07:51:02.482Z,5.88
2022-10-05T07:53:38.547Z,5.85
2022-10-05T07:56:16.215Z,6.70
2022-10-05T07:58:48.332Z,5.70
2022-10-05T08:01:20.844Z,5.47
2022-10-05T08:03:57.793Z,5.72
2022-10-05T08:06:45.374Z,5.80
2022-10-05T08:09:38.497Z,5.93
2022-10-05T08:12:22.164Z,5.38
2022-10-05T08:14:58.315Z,5.43
2022-10-05T08:17:42.765Z,5.32
2022-10-05T08:20:34.301Z,5.50
2022-10-05T08:23:13.250Z,5.78
2022-10-05T08:25:54.686Z,5.05
2022-10-05T08:28:29.551Z,5.55
2022-10-05T08:31:05.498Z,5.40
2022-10-05T08:33:46.362Z,5.20
2022-10-05T08:36:16.926Z,5.45
2022-10-05T08:38:45.726Z,4.97
2022-10-05T08:42:07.976Z,5.05
2022-10-05T08:45:23.176Z,5.70
2022-10-05T08:48:17.258Z,5.30
2022-10-05T08:51:39.426Z,5.35
2022-10-05T08:54:46.971Z,6.65
2022-10-05T08:57:46.573Z,6.85
2022-10-05T09:00:20.721Z,5.85
2022-10-05T09:03:29.864Z,5.35
2022-10-05T09:06:27.814Z,5.55
2022-10-05T09:09:36.326Z,5.45
2022-10-05T09:12:41.477Z,5.30
2022-10-05T09:15:44.123Z,5.63
2022-10-05T09:19:03.501Z,22.88
2022-10-05T09:21:43.774Z,6.85
2022-10-05T09:24:48.522Z,5.65
2022-10-05T09:27:19.257Z,6.10
2022-10-05T09:30:20.231Z,6.00
2022-10-05T09:33:33.524Z,6.93
2022-10-05T09:36:45.051Z,5.97
2022-10-05T09:39:36.743Z,6.68
2022-10-05T09:42:50.040Z,6.28
2022-10-05T09:45:45.547Z,6.07
2022-10-05T09:48:56.333Z,6.03
2022-10-05T09:52:00.202Z,5.82
2022-10-05T09:55:24.022Z,6.72
2022-10-05T09:58:36.293Z,7.32
2022-10-05T10:01:34.483Z,7.63
2022-10-05T10:04:25.790Z,6.55
2022-10-05T10:07:26.440Z,7.60
2022-10-05T10:10:38.906Z,7.22
2022-10-05T10:13:43.302Z,7.78
2022-10-05T10:16:26.946Z,8.23
2022-10-05T10:19:21.375Z,8.13
2022-10-05T10:22:39.700Z,8.20
2022-10-05T10:26:08.670Z,7.68
2022-10-05T10:29:13.544Z,7.85
2022-10-05T10:32:22.212Z,8.20
2022-10-05T10:35:22.435Z,7.35
2022-10-05T10:38:36.467Z,7.82
2022-10-05T10:41:47.479Z,7.80
2022-10-05T10:45:09.284Z,7.47
2022-10-05T10:48:01.017Z,7.53
2022-10-05T10:51:13.877Z,7.35
2022-10-05T10:54:20.389Z,6.88
2022-10-05T10:57:19.208Z,6.95
2022-10-05T11:00:32.580Z,6.82
2022-10-05T11:03:42.995Z,6.28
2022-10-05T11:06:28.102Z,6.55
2022-10-05T11:09:31.003Z,6.75
2022-10-05T11:13:20.218Z,6.57
2022-10-05T11:16:30.468Z,6.78
2022-10-05T11:19:35.044Z,6.68
2022-10-05T11:22:37.693Z,6.18
2022-10-05T11:25:32.124Z,6.25
2022-10-05T11:28:29.301Z,6.00
2022-10-05T11:31:32.194Z,6.18
2022-10-05T11:34:38.958Z,5.70
2022-10-05T11:37:48.002Z,6.30
2022-10-05T11:41:03.331Z,6.25
2022-10-05T11:44:07.141Z,6.35
2022-10-05T11:46:44.583Z,6.22
2022-10-05T11:49:28.352Z,6.22
2022-10-05T11:52:10.107Z,6.88
2022-10-05T11:55:10.816Z,6.30
2022-10-05T11:57:52.216Z,6.22
2022-10-05T12:00:23.184Z,6.38
2022-10-05T12:03:38.747Z,5.68
2022-10-05T12:06:23.461Z,6.43
2022-10-05T12:09:05.905Z,6.10
2022-10-05T12:11:57.695Z,5.45
2022-10-05T12:14:39.402Z,6.25
2022-10-05T12:17:19.405Z,6.15
2022-10-05T12:19:55.598Z,5.75
2022-10-05T12:22:30.610Z,5.80
2022-10-05T12:25:22.824Z,5.97
2022-10-05T12:27:55.598Z,5.80
2022-10-05T12:30:36.392Z,5.65
2022-10-05T12:33:15.310Z,6.28
2022-10-05T12:35:49.714Z,5.50
2022-10-05T12:38:29.625Z,5.78
2022-10-05T12:41:10.991Z,5.38
2022-10-05T12:43:54.581Z,5.78
2022-10-05T12:46:35.639Z,4.93
2022-10-05T12:49:34.990Z,5.20
2022-10-05T12:52:06.761Z,4.88
2022-10-05T12:54:47.662Z,5.40
2022-10-05T12:57:27.066Z,4.40
2022-10-05T13:00:05.247Z,4.50
2022-10-05T13:02:43.199Z,5.53
2022-10-05T13:05:29.247Z,4.90
2022-10-05T13:08:17.843Z,5.10
2022-10-05T13:10:51.074Z,4.85
2022-10-05T13:13:47.916Z,4.88
2022-10-05T13:16:31.122Z,4.57
2022-10-05T13:19:24.031Z,4.68
2022-10-05T13:22:17.245Z,4.32
2022-10-05T13:24:59.347Z,3.92
2022-10-05T13:27:33.431Z,3.97
2022-10-05T13:30:08.454Z,4.30
2022-10-05T13:32:43.198Z,3.65
2022-10-05T13:35:40.348Z,4.15
2022-10-05T13:38:25.270Z,3.72
2022-10-05T13:41:05.944Z,4.30
2022-10-05T13:43:41.397Z,3.60
2022-10-05T13:46:19.796Z,3.25
2022-10-05T13:49:06.150Z,3.00
2022-10-05T13:51:46.881Z,3.35
2022-10-05T13:54:20.494Z,3.10
2022-10-05T13:56:55.906Z,2.97
2022-10-05T13:59:31.765Z,3.13
2022-10-05T14:02:07.057Z,3.20
2022-10-05T14:04:48.636Z,2.85
2022-10-05T14:07:34.382Z,2.78
2022-10-05T14:10:04.635Z,2.70
2022-10-05T14:12:41.864Z,2.60
2022-10-05T14:15:24.350Z,2.88
2022-10-05T14:17:52.808Z,2.40
2022-10-05T14:20:28.015Z,2.85
2022-10-05T14:23:01.908Z,2.60
2022-10-05T14:25:31.670Z,3.28
2022-10-05T14:28:04.926Z,3.10
2022-10-05T14:30:35.097Z,3.40
2022-10-05T14:33:17.510Z,2.78
2022-10-05T14:35:50.552Z,3.50
2022-10-05T14:38:23.037Z,3.53
2022-10-05T14:41:18.940Z,4.20
2022-10-05T14:43:56.947Z,4.28
2022-10-05T14:46:29.134Z,5.60
2022-10-05T14:49:17.127Z,4.05
2022-10-05T14:51:46.833Z,3.90
2022-10-05T14:54:28.606Z,4.47
2022-10-05T14:57:07.950Z,3.72
2022-10-05T15:00:12.583Z,3.97
2022-10-05T15:03:07.111Z,3.40
2022-10-05T15:05:40.962Z,3.60
2022-10-05T15:08:28.155Z,3.25
2022-10-05T15:11:04.728Z,2.85
2022-10-05T15:13:39.020Z,3.80
2022-10-05T15:16:19.929Z,3.75
2022-10-05T15:18:58.230Z,3.22
2022-10-05T15:21:45.068Z,3.70
2022-10-05T15:24:20.957Z,3.60
2022-10-05T15:26:52.049Z,4.03
2022-10-05T15:29:52.220Z,3.28
2022-10-05T15:32:38.083Z,3.00
2022-10-05T15:35:36.830Z,2.78
2022-10-05T15:38:21.079Z,2.50
2022-10-05T15:41:10.042Z,2.13
2022-10-05T15:44:06.141Z,2.42
2022-10-05T15:46:41.495Z,2.10
2022-10-05T15:49:29.006Z,2.17
2022-10-05T15:52:07.225Z,3.25
2022-10-05T15:55:10.779Z,2.17
2022-10-05T15:57:52.128Z,2.25
2022-10-05T16:00:23.208Z,2.30
2022-10-05T16:03:02.333Z,2.30
2022-10-05T16:06:19.707Z,2.20
2022-10-05T16:09:11.820Z,2.00
2022-10-05T16:12:00.374Z,1.90
2022-10-05T16:14:55.004Z,1.92
2022-10-05T16:17:37.949Z,2.15
2022-10-05T16:20:23.171Z,2.03
2022-10-05T16:22:59.710Z,2.38
2022-10-05T16:25:46.273Z,2.20
2022-10-05T16:28:29.966Z,2.10
2022-10-05T16:31:09.766Z,1.85
2022-10-05T16:33:54.827Z,1.83
2022-10-05T16:36:37.408Z,1.85
2022-10-05T16:39:16.836Z,2.17
2022-10-05T16:41:56.590Z,2.30
2022-10-05T16:44:40.494Z,2.53
2022-10-05T16:47:36.109Z,2.45
2022-10-05T16:50:20.895Z,2.33
2022-10-05T16:52:57.215Z,2.53
2022-10-05T16:55:36.452Z,2.05
2022-10-05T16:58:15.922Z,2.20
2022-10-05T17:01:02.115Z,2.25
2022-10-05T17:03:50.842Z,2.67
2022-10-05T17:06:45.978Z,3.10
2022-10-05T17:09:52.303Z,3.60
2022-10-05T17:12:47.047Z,3.05
2022-10-05T17:15:37.281Z,3.10
2022-10-05T17:18:25.001Z,3.40
2022-10-05T17:21:05.488Z,3.38
2022-10-05T17:23:53.518Z,2.88
2022-10-05T17:26:53.442Z,3.40
2022-10-05T17:29:30.404Z,3.30
2022-10-05T17:32:11.197Z,3.08
2022-10-05T17:34:41.461Z,3.38
2022-10-05T17:37:36.601Z,3.08
2022-10-05T17:40:34.390Z,3.28
2022-10-05T17:43:24.102Z,4.28
2022-10-05T17:46:02.115Z,4.05
2022-10-05T17:49:17.779Z,3.50
2022-10-05T17:52:22.772Z,3.25
2022-10-05T17:55:30.121Z,3.83
2022-10-05T17:58:02.647Z,3.17
2022-10-05T18:00:57.174Z,3.30
2022-10-05T18:03:42.848Z,3.22
2022-10-05T18:06:43.399Z,2.92
2022-10-05T18:09:44.359Z,2.70
2022-10-05T18:12:48.330Z,3.00
2022-10-05T18:15:48.782Z,3.08
2022-10-05T18:18:59.247Z,3.00
2022-10-05T18:21:39.676Z,2.92
2022-10-05T18:24:46.089Z,3.05
2022-10-05T18:27:54.265Z,2.78
2022-10-05T18:30:25.367Z,2.65
2022-10-05T18:33:47.643Z,2.67
2022-10-05T18:36:36.898Z,2.88
2022-10-05T18:39:18.812Z,3.13
2022-10-05T18:42:00.879Z,2.40
2022-10-05T18:44:40.745Z,2.63
2022-10-05T18:47:19.616Z,2.30
2022-10-05T18:50:17.591Z,2.40
2022-10-05T18:53:09.289Z,2.60
2022-10-05T18:55:44.821Z,2.20
2022-10-05T18:58:20.352Z,2.17
2022-10-05T19:01:33.912Z,2.60
2022-10-05T19:04:17.527Z,4.55
2022-10-05T19:06:58.448Z,3.90
2022-10-05T19:10:06.046Z,4.10
2022-10-05T19:12:51.516Z,2.88
2022-10-05T19:15:27.815Z,2.65
2022-10-05T19:18:34.554Z,3.28
2022-10-05T19:21:20.743Z,3.22
2022-10-05T19:24:06.921Z,3.42
2022-10-05T19:26:53.887Z,3.03
2022-10-05T19:29:37.870Z,3.30
2022-10-05T19:32:18.445Z,3.05
2022-10-05T19:35:07.331Z,3.70
2022-10-05T19:37:47.630Z,2.90
2022-10-05T19:40:24.499Z,2.60
2022-10-05T19:43:21.045Z,2.70
2022-10-05T19:46:04.253Z,2.80
2022-10-05T19:48:43.164Z,2.78
2022-10-05T19:51:27.642Z,2.88
2022-10-05T19:53:58.768Z,2.42
2022-10-05T19:56:31.360Z,2.75
2022-10-05T19:59:13.230Z,2.60
2022-10-05T20:01:45.819Z,2.55
2022-10-05T20:04:16.383Z,2.30
2022-10-05T20:06:47.968Z,2.45
2022-10-05T20:09:25.336Z,2.25
2022-10-05T20:11:54.891Z,2.20
2022-10-05T20:14:31.897Z,2.55
2022-10-05T20:17:35.802Z,2.25
2022-10-05T20:20:25.350Z,2.67
2022-10-05T20:23:22.123Z,2.70
2022-10-05T20:26:04.579Z,2.40
2022-10-05T20:28:33.566Z,2.03
2022-10-05T20:31:02.382Z,2.88
2022-10-05T20:33:31.084Z,2.28
2022-10-05T20:36:03.705Z,2.33
2022-10-05T20:38:40.029Z,2.60
2022-10-05T20:41:11.305Z,2.42
2022-10-05T20:43:40.477Z,2.78
2022-10-05T20:46:08.900Z,2.45
2022-10-05T20:48:37.279Z,2.55
2022-10-05T20:51:06.107Z,2.40
2022-10-05T20:53:35.998Z,2.78
2022-10-05T20:56:04.728Z,2.88
2022-10-05T20:58:33.053Z,2.72
2022-10-05T21:01:19.954Z,2.70
2022-10-05T21:03:49.802Z,2.45
2022-10-05T21:06:21.020Z,2.67
2022-10-05T21:08:51.476Z,2.38
2022-10-05T21:11:19.934Z,3.03
2022-10-05T21:13:49.402Z,3.03
2022-10-05T21:16:19.769Z,2.47
2022-10-05T21:18:50.423Z,3.13
2022-10-05T21:21:19.741Z,2.70
2022-10-05T21:23:51.240Z,2.80
2022-10-05T21:26:21.826Z,2.67
2022-10-05T21:28:51.832Z,4.30
2022-10-05T21:31:20.356Z,3.72
2022-10-05T21:33:48.794Z,4.63
2022-10-05T21:36:21.116Z,2.90
2022-10-05T21:38:55.765Z,3.80
2022-10-05T21:41:25.702Z,3.28
2022-10-05T21:43:55.132Z,3.90
2022-10-05T21:46:26.969Z,3.70
2022-10-05T21:48:56.020Z,5.07
2022-10-05T21:51:26.906Z,5.22
2022-10-05T21:54:01.725Z,5.03
2022-10-05T21:56:34.799Z,2.70
2022-10-05T21:59:04.920Z,2.75
2022-10-05T22:01:35.994Z,2.60
2022-10-05T22:04:04.695Z,3.42
2022-10-05T22:06:35.240Z,2.75
2022-10-05T22:09:06.419Z,3.08
2022-10-05T22:11:35.336Z,2.45
2022-10-05T22:14:03.771Z,3.17
2022-10-05T22:16:35.278Z,3.00
2022-10-05T22:19:15.935Z,5.90
2022-10-05T22:21:45.876Z,4.78
2022-10-05T22:24:16.227Z,4.65
2022-10-05T22:26:48.246Z,2.75
2022-10-05T22:29:17.539Z,2.60
2022-10-05T22:31:48.753Z,2.75
2022-10-05T22:34:18.232Z,2.40
2022-10-05T22:36:49.364Z,2.47
2022-10-05T22:39:19.427Z,2.40
2022-10-05T22:41:48.918Z,2.53
2022-10-05T22:44:17.549Z,2.50
2022-10-05T22:46:46.111Z,8.85
2022-10-05T22:49:14.766Z,5.10
2022-10-05T22:51:43.923Z,8.27
2022-10-05T22:54:12.672Z,2.88
2022-10-05T22:56:42.365Z,4.38
2022-10-05T22:59:10.924Z,2.65
2022-10-05T23:01:39.451Z,2.90
2022-10-05T23:04:09.002Z,2.38
2022-10-05T23:06:37.300Z,2.47
2022-10-05T23:09:06.420Z,2.53
2022-10-05T23:11:34.825Z,2.38
2022-10-05T23:14:04.720Z,2.20
2022-10-05T23:16:33.117Z,2.28
2022-10-05T23:19:01.865Z,2.33
2022-10-05T23:21:31.724Z,2.30
2022-10-05T23:24:00.143Z,2.33
2022-10-05T23:26:29.104Z,2.63
2022-10-05T23:28:57.511Z,2.60
2022-10-05T23:31:31.121Z,2.10
2022-10-05T23:33:59.972Z,2.75
2022-10-05T23:36:32.359Z,2.38
2022-10-05T23:39:02.906Z,2.60
2022-10-05T23:41:31.193Z,2.15
2022-10-05T23:43:59.669Z,2.22
2022-10-05T23:46:32.576Z,2.13
2022-10-05T23:49:00.893Z,2.30
2022-10-05T23:51:29.223Z,2.20
2022-10-05T23:53:57.642Z,2.30
2022-10-05T23:56:26.592Z,3.03
2022-10-05T23:58:55.300Z,2.10
